Time;durP1;ratioP1;P1;durP2;ratioP2;P2;SDS_P1;SDS_P2;PMS_P1;PMS_P2;Temp;Humidity;BMP_temperature;BMP_pressure;BME280_temperature;BME280_humidity;BME280_pressure;Samples;Min_cycle;Max_cycle;Signal;HPM_P1;HPM_P2
2021/05/09 00:02:25;;;;;;;6.53;4.63;;;13.80;99.90;;;;;;5066575;28;20188;-67
2021/05/09 00:04:53;;;;;;;7.00;4.70;;;13.80;99.90;;;;;;5063125;28;20200;-67
2021/05/09 00:07:20;;;;;;;7.00;4.70;;;13.90;99.90;;;;;;5061938;28;20208;-67
2021/05/09 00:09:49;;;;;;;5.80;4.40;;;13.80;99.90;;;;;;5064448;28;20204;-67
2021/05/09 00:12:16;;;;;;;5.90;4.30;;;13.80;99.90;;;;;;5064111;28;20196;-66
2021/05/09 00:14:43;;;;;;;8.07;4.37;;;13.80;99.90;;;;;;5064143;28;20203;-66
2021/05/09 00:17:11;;;;;;;6.23;4.47;;;13.80;99.90;;;;;;5065146;28;20202;-66
2021/05/09 00:19:38;;;;;;;6.33;4.63;;;13.80;99.90;;;;;;5066392;28;20639;-66
2021/05/09 00:22:06;;;;;;;6.67;4.50;;;13.80;99.90;;;;;;5067447;28;20222;-66
2021/05/09 00:24:33;;;;;;;4.97;4.43;;;13.80;99.90;;;;;;5063995;28;20199;-67
2021/05/09 00:27:02;;;;;;;6.33;4.40;;;13.80;99.90;;;;;;5067107;28;20208;-67
2021/05/09 00:29:29;;;;;;;5.70;4.50;;;13.80;99.90;;;;;;5065942;28;20273;-67
2021/05/09 00:31:57;;;;;;;5.97;4.40;;;13.80;99.90;;;;;;5063749;28;20192;-67
2021/05/09 00:34:24;;;;;;;5.77;4.70;;;13.80;99.90;;;;;;5063209;28;20200;-67
2021/05/09 00:36:52;;;;;;;6.60;4.70;;;13.70;99.90;;;;;;5068741;28;20193;-67
2021/05/09 00:39:19;;;;;;;5.93;4.80;;;13.70;99.90;;;;;;5062238;28;20251;-67
2021/05/09 00:41:47;;;;;;;5.90;4.43;;;13.70;99.90;;;;;;5062791;28;20267;-67
2021/05/09 00:44:15;;;;;;;12.37;4.80;;;13.70;99.90;;;;;;5061369;28;20190;-67
2021/05/09 00:46:43;;;;;;;7.07;4.60;;;13.70;99.90;;;;;;5066123;28;20216;-67
2021/05/09 00:49:11;;;;;;;8.77;4.80;;;13.70;99.90;;;;;;5059577;28;20226;-67
2021/05/09 00:51:40;;;;;;;5.93;4.70;;;13.70;99.90;;;;;;5066039;28;20748;-67
2021/05/09 00:54:08;;;;;;;6.23;4.90;;;13.60;99.90;;;;;;5067495;28;20253;-67
2021/05/09 00:56:35;;;;;;;5.97;5.10;;;13.60;99.90;;;;;;5065368;28;20196;-67
2021/05/09 00:59:03;;;;;;;8.50;4.83;;;13.70;99.90;;;;;;5067825;28;20231;-67
2021/05/09 01:01:36;;;;;;;5.80;4.60;;;13.70;99.90;;;;;;5062518;28;20184;-67
2021/05/09 01:04:04;;;;;;;5.30;4.80;;;13.70;99.90;;;;;;5066254;28;20192;-67
2021/05/09 01:06:33;;;;;;;5.20;4.50;;;13.70;99.90;;;;;;5070372;28;20192;-67
2021/05/09 01:09:01;;;;;;;5.70;4.80;;;13.60;99.90;;;;;;5073804;28;20187;-67
2021/05/09 01:11:29;;;;;;;5.63;4.93;;;13.60;99.90;;;;;;5074014;28;20201;-67
2021/05/09 01:13:57;;;;;;;6.97;4.60;;;13.50;99.90;;;;;;5070408;28;20728;-67
2021/05/09 01:16:24;;;;;;;9.43;5.00;;;13.50;99.90;;;;;;5068243;28;20275;-67
2021/05/09 01:18:53;;;;;;;7.50;5.63;;;13.40;99.90;;;;;;5066766;28;20235;-67
2021/05/09 01:21:21;;;;;;;8.70;5.73;;;13.40;99.90;;;;;;5071743;28;20196;-67
2021/05/09 01:23:49;;;;;;;6.40;5.80;;;13.40;99.90;;;;;;5071903;28;20200;-67
2021/05/09 01:26:16;;;;;;;7.20;5.70;;;13.40;99.90;;;;;;5070100;28;20199;-67
2021/05/09 01:28:45;;;;;;;7.83;6.00;;;13.30;99.90;;;;;;5072470;28;20208;-67
2021/05/09 01:31:13;;;;;;;9.67;6.03;;;13.30;99.90;;;;;;5069688;28;20206;-67
2021/05/09 01:33:40;;;;;;;11.60;6.30;;;13.30;99.90;;;;;;5067278;28;20211;-67
2021/05/09 01:36:08;;;;;;;10.40;6.30;;;13.30;99.90;;;;;;5069909;28;20282;-67
2021/05/09 01:38:37;;;;;;;9.70;6.17;;;13.30;99.90;;;;;;5065529;28;20196;-67
2021/05/09 01:41:04;;;;;;;11.40;6.53;;;13.20;99.90;;;;;;5066189;28;20196;-67
2021/05/09 01:43:34;;;;;;;8.37;6.37;;;13.30;99.90;;;;;;5069395;28;20196;-67
2021/05/09 01:46:01;;;;;;;7.40;6.37;;;13.30;99.90;;;;;;5069908;28;20203;-67
2021/05/09 01:48:29;;;;;;;7.60;6.13;;;13.30;99.90;;;;;;5068729;28;20248;-67
2021/05/09 01:50:57;;;;;;;10.17;6.60;;;13.30;99.90;;;;;;5068178;28;20196;-67
2021/05/09 01:53:25;;;;;;;10.57;6.07;;;13.30;99.90;;;;;;5070246;28;20188;-67
2021/05/09 01:55:53;;;;;;;8.13;5.93;;;13.30;99.90;;;;;;5062492;28;20210;-67
2021/05/09 01:58:21;;;;;;;8.43;6.03;;;13.30;99.90;;;;;;5066737;28;20702;-67
2021/05/09 02:00:49;;;;;;;6.37;5.77;;;13.30;99.90;;;;;;5067656;28;20184;-67
2021/05/09 02:03:17;;;;;;;6.80;5.70;;;13.30;99.90;;;;;;5067790;28;20184;-67
2021/05/09 02:05:44;;;;;;;6.67;5.40;;;13.20;99.90;;;;;;5069148;28;20192;-67
2021/05/09 02:08:12;;;;;;;8.67;5.87;;;13.20;99.90;;;;;;5067342;28;20212;-67
2021/05/09 02:10:39;;;;;;;7.10;5.53;;;13.10;99.90;;;;;;5066112;28;20207;-67
2021/05/09 02:13:07;;;;;;;6.70;5.83;;;13.00;99.90;;;;;;5068195;28;20196;-67
2021/05/09 02:15:35;;;;;;;7.03;5.40;;;12.90;99.90;;;;;;5067750;28;20245;-67
2021/05/09 02:18:02;;;;;;;7.83;4.77;;;12.90;99.90;;;;;;5069209;28;20220;-67
2021/05/09 02:20:30;;;;;;;12.37;5.87;;;12.80;99.90;;;;;;5066268;28;20203;-67
2021/05/09 02:22:58;;;;;;;5.27;4.70;;;12.70;99.90;;;;;;5069980;28;20203;-67
2021/05/09 02:25:25;;;;;;;6.77;5.00;;;12.60;99.90;;;;;;5069059;28;20199;-67
2021/05/09 02:27:56;;;;;;;8.17;5.00;;;12.60;99.90;;;;;;5071154;28;20266;-67
2021/05/09 02:30:24;;;;;;;5.50;4.90;;;12.60;99.90;;;;;;5070058;28;20188;-67
2021/05/09 02:32:52;;;;;;;6.97;5.63;;;12.50;99.90;;;;;;5066700;28;20204;-67
2021/05/09 02:35:21;;;;;;;7.57;5.50;;;12.50;99.90;;;;;;5068371;28;20237;-67
2021/05/09 02:37:48;;;;;;;5.83;5.30;;;12.40;99.90;;;;;;5068692;28;20184;-66
2021/05/09 02:40:16;;;;;;;5.07;4.50;;;12.50;99.90;;;;;;5067383;28;20196;-66
2021/05/09 02:42:44;;;;;;;6.47;5.10;;;12.50;99.90;;;;;;5070427;28;20196;-67
2021/05/09 02:45:12;;;;;;;6.03;4.60;;;12.50;99.90;;;;;;5067644;28;20586;-67
2021/05/09 02:47:41;;;;;;;9.17;4.90;;;12.50;99.90;;;;;;5069530;28;20238;-67
2021/05/09 02:50:10;;;;;;;7.07;4.60;;;12.50;99.90;;;;;;5065445;28;20703;-67
2021/05/09 02:52:38;;;;;;;7.77;5.00;;;12.50;99.90;;;;;;5069594;28;20200;-67
2021/05/09 02:55:07;;;;;;;7.53;4.97;;;12.40;99.90;;;;;;5066685;28;20207;-67
2021/05/09 02:57:34;;;;;;;6.03;4.73;;;12.40;99.90;;;;;;5067955;28;20191;-67
2021/05/09 03:00:04;;;;;;;6.87;4.97;;;12.40;99.90;;;;;;5068039;28;20689;-67
2021/05/09 03:02:32;;;;;;;5.70;4.70;;;12.30;99.90;;;;;;5065715;28;20195;-67
2021/05/09 03:05:03;;;;;;;7.40;5.00;;;12.20;99.90;;;;;;5064310;28;20283;-67
2021/05/09 03:07:31;;;;;;;6.90;4.90;;;12.20;99.90;;;;;;5065476;28;20231;-67
2021/05/09 03:09:58;;;;;;;7.13;4.73;;;12.20;99.90;;;;;;5066714;28;20192;-67
2021/05/09 03:12:26;;;;;;;5.53;4.43;;;12.20;99.90;;;;;;5068416;28;20199;-67
2021/05/09 03:14:55;;;;;;;6.20;4.90;;;12.20;99.90;;;;;;5065425;28;20667;-67
2021/05/09 03:17:22;;;;;;;5.23;4.73;;;12.20;99.90;;;;;;5067724;28;20211;-67
2021/05/09 03:19:49;;;;;;;6.30;4.60;;;12.10;99.90;;;;;;5063413;28;20192;-67
2021/05/09 03:22:18;;;;;;;5.23;4.77;;;12.20;99.90;;;;;;5065806;28;20699;-67
2021/05/09 03:24:45;;;;;;;5.10;4.60;;;12.10;99.90;;;;;;5066570;28;20249;-67
2021/05/09 03:27:13;;;;;;;6.70;4.30;;;12.10;99.90;;;;;;5066296;28;20212;-67
2021/05/09 03:29:40;;;;;;;5.73;4.50;;;12.10;99.90;;;;;;5062875;28;20195;-67
2021/05/09 03:32:08;;;;;;;5.63;4.53;;;12.10;99.90;;;;;;5066211;28;20200;-67
2021/05/09 03:34:35;;;;;;;4.93;4.20;;;12.10;99.90;;;;;;5066791;28;20319;-67
2021/05/09 03:37:03;;;;;;;5.77;4.43;;;12.20;99.90;;;;;;5066924;28;20188;-67
2021/05/09 03:39:31;;;;;;;4.90;4.40;;;12.30;99.90;;;;;;5068738;28;20202;-67
2021/05/09 03:41:59;;;;;;;4.20;3.70;;;12.40;99.90;;;;;;5065107;28;20750;-66
2021/05/09 03:44:26;;;;;;;4.40;4.00;;;12.40;99.90;;;;;;5070165;28;20192;-66
2021/05/09 03:46:55;;;;;;;4.80;4.17;;;12.40;99.90;;;;;;5065502;28;20203;-66
2021/05/09 03:49:22;;;;;;;5.07;4.47;;;12.30;99.90;;;;;;5066302;28;20203;-66
2021/05/09 03:51:49;;;;;;;5.73;4.47;;;12.20;99.90;;;;;;5064942;28;20651;-66
2021/05/09 03:54:17;;;;;;;7.10;4.73;;;12.10;99.90;;;;;;5068894;28;20192;-66
2021/05/09 03:56:45;;;;;;;5.07;4.67;;;12.10;99.90;;;;;;5058748;28;20188;-66
2021/05/09 03:59:12;;;;;;;7.83;5.10;;;12.00;99.90;;;;;;5062120;28;20197;-66
2021/05/09 04:01:42;;;;;;;9.40;5.23;;;12.10;99.90;;;;;;5065584;28;20253;-66
2021/05/09 04:04:09;;;;;;;6.87;4.93;;;12.10;99.90;;;;;;5063624;28;20192;-66
2021/05/09 04:06:37;;;;;;;5.23;4.67;;;12.00;99.90;;;;;;5066259;28;20191;-66
2021/05/09 04:09:06;;;;;;;5.00;4.43;;;11.90;99.90;;;;;;5063373;28;20204;-66
2021/05/09 04:11:33;;;;;;;5.30;4.80;;;11.80;99.90;;;;;;5065384;28;20651;-66
2021/05/09 04:14:02;;;;;;;7.53;4.83;;;11.70;99.90;;;;;;5065069;28;20215;-66
2021/05/09 04:16:29;;;;;;;5.90;5.03;;;11.60;99.90;;;;;;5066842;28;20245;-67
2021/05/09 04:18:57;;;;;;;5.77;5.27;;;11.60;99.90;;;;;;5062997;28;20220;-66
2021/05/09 04:21:24;;;;;;;6.27;4.70;;;11.50;99.90;;;;;;5065762;28;20233;-66
2021/05/09 04:23:51;;;;;;;7.23;4.80;;;11.40;99.90;;;;;;5065765;28;20206;-66
2021/05/09 04:26:19;;;;;;;7.83;5.17;;;11.40;99.90;;;;;;5066518;28;20207;-66
2021/05/09 04:28:47;;;;;;;5.07;4.77;;;11.30;99.90;;;;;;5068214;28;20208;-66
2021/05/09 04:31:15;;;;;;;5.40;4.90;;;11.20;99.90;;;;;;5064382;28;20192;-66
2021/05/09 04:33:43;;;;;;;6.77;4.90;;;11.20;99.90;;;;;;5064347;28;20192;-67
2021/05/09 04:36:11;;;;;;;7.07;5.07;;;11.20;99.90;;;;;;5063825;28;20199;-66
2021/05/09 04:38:38;;;;;;;6.83;5.70;;;11.20;99.90;;;;;;5066600;28;20206;-66
2021/05/09 04:41:05;;;;;;;8.07;5.47;;;11.10;99.90;;;;;;5064506;28;20191;-66
2021/05/09 04:43:34;;;;;;;5.50;5.00;;;11.10;99.90;;;;;;5064065;28;20855;-66
2021/05/09 04:46:02;;;;;;;9.87;5.60;;;11.10;99.90;;;;;;5066419;28;20925;-66
2021/05/09 04:48:32;;;;;;;5.67;5.13;;;11.20;99.90;;;;;;5067393;28;20219;-66
2021/05/09 04:51:00;;;;;;;6.47;5.57;;;11.20;99.90;;;;;;5068958;28;20742;-66
2021/05/09 04:53:30;;;;;;;5.90;5.30;;;11.30;99.90;;;;;;5070565;28;20188;-66
2021/05/09 04:56:01;;;;;;;5.93;5.30;;;11.40;99.90;;;;;;5067081;28;20647;-66
2021/05/09 04:58:30;;;;;;;6.63;5.43;;;11.60;99.90;;;;;;5063965;28;20181;-66
2021/05/09 05:01:00;;;;;;;6.10;5.30;;;11.70;99.90;;;;;;5065855;28;20226;-66
2021/05/09 05:03:29;;;;;;;6.40;4.97;;;11.90;99.90;;;;;;5064982;28;20220;-66
2021/05/09 05:05:58;;;;;;;5.23;4.70;;;12.10;99.90;;;;;;5063558;28;20215;-66
2021/05/09 05:08:27;;;;;;;7.07;4.30;;;12.30;99.90;;;;;;5065218;28;20215;-66
2021/05/09 05:10:54;;;;;;;4.00;3.70;;;12.60;99.90;;;;;;5065852;28;20192;-66
2021/05/09 05:13:23;;;;;;;6.30;3.90;;;12.90;99.90;;;;;;5065505;28;20196;-66
2021/05/09 05:15:52;;;;;;;4.10;3.80;;;13.10;99.90;;;;;;5065611;28;20667;-66
2021/05/09 05:18:20;;;;;;;4.67;3.90;;;13.40;99.90;;;;;;5066811;28;20215;-66
2021/05/09 05:20:48;;;;;;;4.40;4.00;;;13.50;99.90;;;;;;5068523;28;20193;-66
2021/05/09 05:23:17;;;;;;;10.30;3.80;;;13.80;99.90;;;;;;5068109;28;20188;-66
2021/05/09 05:25:45;;;;;;;4.33;3.93;;;14.00;99.90;;;;;;5068369;28;20188;-67
2021/05/09 05:28:13;;;;;;;5.80;3.27;;;14.20;99.90;;;;;;5073889;28;20238;-66
2021/05/09 05:30:40;;;;;;;5.53;3.80;;;14.40;99.90;;;;;;5064956;28;20285;-66
2021/05/09 05:33:07;;;;;;;3.63;3.33;;;14.70;99.90;;;;;;5066197;28;20191;-66
2021/05/09 05:35:35;;;;;;;4.43;3.43;;;14.90;99.90;;;;;;5063841;28;20181;-66
2021/05/09 05:38:03;;;;;;;6.00;3.33;;;15.10;99.90;;;;;;5063870;28;20195;-66
2021/05/09 05:40:31;;;;;;;4.60;3.23;;;15.20;99.90;;;;;;5056859;28;20192;-66
2021/05/09 05:42:59;;;;;;;5.87;3.30;;;15.40;99.90;;;;;;5065424;28;20203;-66
2021/05/09 05:45:26;;;;;;;3.90;3.33;;;15.50;99.90;;;;;;5062731;28;20291;-66
2021/05/09 05:47:53;;;;;;;3.80;3.50;;;15.60;99.90;;;;;;5061727;28;20208;-67
2021/05/09 05:50:21;;;;;;;6.53;3.57;;;15.60;99.90;;;;;;5064377;28;20691;-64
2021/05/09 05:52:54;;;;;;;8.43;3.80;;;15.40;99.90;;;;;;5070816;28;20203;-64
2021/05/09 05:55:22;;;;;;;5.50;3.90;;;15.20;99.90;;;;;;5067715;28;20196;-65
2021/05/09 05:57:50;;;;;;;7.13;4.00;;;14.90;99.90;;;;;;5068637;28;20211;-65
2021/05/09 06:00:18;;;;;;;5.00;4.03;;;14.70;99.90;;;;;;5067248;28;20203;-65
2021/05/09 06:02:46;;;;;;;4.73;4.20;;;14.50;99.90;;;;;;5063915;28;20190;-65
2021/05/09 06:05:15;;;;;;;6.23;4.40;;;14.40;99.90;;;;;;5068310;28;20184;-65
2021/05/09 06:07:42;;;;;;;7.63;4.00;;;14.50;99.90;;;;;;5070749;28;20208;-65
2021/05/09 06:10:11;;;;;;;4.50;4.20;;;14.50;99.90;;;;;;5067303;28;20188;-65
2021/05/09 06:12:39;;;;;;;7.57;4.10;;;14.40;99.90;;;;;;5069224;28;20195;-65
2021/05/09 06:15:09;;;;;;;6.33;4.23;;;14.60;99.90;;;;;;5067970;28;20188;-65
2021/05/09 06:17:37;;;;;;;5.33;4.33;;;14.70;99.90;;;;;;5069904;28;20212;-65
2021/05/09 06:20:06;;;;;;;4.33;4.03;;;14.70;99.90;;;;;;5067807;28;20271;-65
2021/05/09 06:22:33;;;;;;;4.63;3.93;;;15.10;99.90;;;;;;5069324;28;20253;-65
2021/05/09 06:25:01;;;;;;;4.77;3.90;;;15.50;99.90;;;;;;5068227;28;20188;-66
2021/05/09 06:27:29;;;;;;;4.57;4.17;;;15.80;99.90;;;;;;5070718;28;20199;-65
2021/05/09 06:29:56;;;;;;;4.53;4.10;;;16.20;99.90;;;;;;5065395;28;20234;-65
2021/05/09 06:32:25;;;;;;;5.80;3.63;;;16.50;99.90;;;;;;5066653;28;20188;-66
2021/05/09 06:34:53;;;;;;;5.73;3.90;;;16.90;99.90;;;;;;5068899;28;20235;-65
2021/05/09 06:37:20;;;;;;;6.00;3.43;;;17.30;99.90;;;;;;5068430;28;20189;-66
2021/05/09 06:39:48;;;;;;;4.13;3.73;;;17.70;99.90;;;;;;5067216;28;20196;-66
2021/05/09 06:42:16;;;;;;;3.63;3.33;;;18.10;99.90;;;;;;5064211;28;20666;-66
2021/05/09 06:44:46;;;;;;;3.60;3.33;;;18.60;99.90;;;;;;5061613;28;20728;-66
2021/05/09 06:47:14;;;;;;;4.37;3.10;;;19.00;99.90;;;;;;5065840;28;20190;-66
2021/05/09 06:49:42;;;;;;;3.23;3.03;;;19.10;99.90;;;;;;5066074;28;20302;-66
2021/05/09 06:52:09;;;;;;;3.10;2.80;;;18.90;99.90;;;;;;5062117;28;20262;-66
2021/05/09 06:54:38;;;;;;;2.83;2.60;;;18.90;99.90;;;;;;5068813;28;20180;-66
2021/05/09 06:57:05;;;;;;;2.90;2.70;;;19.20;99.90;;;;;;5068315;28;20200;-66
2021/05/09 06:59:33;;;;;;;4.27;2.93;;;19.40;99.90;;;;;;5065284;28;20173;-66
2021/05/09 07:02:00;;;;;;;3.10;2.70;;;19.90;99.90;;;;;;5069342;28;20222;-66
2021/05/09 07:04:28;;;;;;;3.13;2.83;;;20.50;99.90;;;;;;5065955;28;20196;-66
2021/05/09 07:06:56;;;;;;;4.13;2.93;;;20.80;99.90;;;;;;5064693;28;20196;-66
2021/05/09 07:09:24;;;;;;;3.13;2.83;;;20.60;99.90;;;;;;5062192;28;20240;-66
2021/05/09 07:11:51;;;;;;;3.20;3.00;;;20.80;99.90;;;;;;5059970;28;20188;-67
2021/05/09 07:14:21;;;;;;;3.10;2.90;;;20.90;99.90;;;;;;5068202;28;20196;-66
2021/05/09 07:16:49;;;;;;;3.10;2.80;;;20.80;99.90;;;;;;5067245;28;20222;-67
2021/05/09 07:19:18;;;;;;;5.03;2.90;;;20.90;99.90;;;;;;5064138;28;20323;-67
2021/05/09 07:21:46;;;;;;;8.83;3.27;;;20.80;99.90;;;;;;5067016;28;20250;-67
2021/05/09 07:24:15;;;;;;;3.67;2.97;;;20.80;99.90;;;;;;5059810;28;20215;-66
2021/05/09 07:26:43;;;;;;;3.27;2.97;;;20.80;99.90;;;;;;5061742;28;20199;-67
2021/05/09 07:29:10;;;;;;;3.57;3.23;;;20.80;99.90;;;;;;5064829;28;20192;-67
2021/05/09 07:31:41;;;;;;;6.93;3.40;;;20.60;99.90;;;;;;5066484;28;20606;-67
2021/05/09 07:34:09;;;;;;;3.93;2.83;;;20.50;99.90;;;;;;5068503;28;20202;-67
2021/05/09 07:36:38;;;;;;;3.63;2.97;;;20.40;99.90;;;;;;5084650;28;20198;-67
2021/05/09 07:39:06;;;;;;;2.93;2.67;;;20.60;99.90;;;;;;5068249;28;20184;-67
2021/05/09 07:41:35;;;;;;;3.53;2.63;;;20.80;99.90;;;;;;5057925;28;20183;-67
2021/05/09 07:44:04;;;;;;;3.07;2.90;;;20.70;99.90;;;;;;5064560;28;20291;-67
2021/05/09 07:46:32;;;;;;;2.60;2.50;;;20.80;99.90;;;;;;5063336;28;20651;-67
2021/05/09 07:48:59;;;;;;;2.97;2.60;;;20.90;99.90;;;;;;5069281;28;20215;-67
2021/05/09 07:51:27;;;;;;;2.87;2.63;;;21.40;99.90;;;;;;5062063;28;20184;-67
2021/05/09 07:53:55;;;;;;;2.40;2.20;;;21.80;99.90;;;;;;5070067;28;20192;-67
2021/05/09 07:56:23;;;;;;;2.63;2.43;;;22.40;99.90;;;;;;5062387;28;20196;-67
2021/05/09 07:58:53;;;;;;;2.80;2.50;;;22.70;99.90;;;;;;5059513;28;20188;-67
2021/05/09 08:01:21;;;;;;;5.80;2.43;;;22.80;99.90;;;;;;5063540;28;20197;-66
2021/05/09 08:03:48;;;;;;;2.47;2.20;;;22.90;99.90;;;;;;5065589;28;20203;-66
2021/05/09 08:06:16;;;;;;;4.93;2.37;;;23.00;99.90;;;;;;5064502;28;20306;-66
2021/05/09 08:08:46;;;;;;;3.43;2.60;;;22.50;99.90;;;;;;5067461;28;20196;-67
2021/05/09 08:11:14;;;;;;;3.83;2.53;;;22.30;99.90;;;;;;5063620;28;20253;-67
2021/05/09 08:13:41;;;;;;;2.33;2.13;;;22.50;99.90;;;;;;5065882;28;20279;-67
2021/05/09 08:16:10;;;;;;;2.80;2.47;;;22.40;99.90;;;;;;5062710;28;21691;-66
2021/05/09 08:18:38;;;;;;;3.30;2.53;;;21.90;99.90;;;;;;5063648;28;20322;-67
2021/05/09 08:21:05;;;;;;;3.17;2.53;;;21.50;99.90;;;;;;5067848;28;20200;-66
2021/05/09 08:23:35;;;;;;;3.77;2.30;;;21.30;99.90;;;;;;5066787;28;20558;-66
2021/05/09 08:26:04;;;;;;;2.53;2.40;;;21.30;99.90;;;;;;5066866;28;20222;-66
2021/05/09 08:28:31;;;;;;;2.53;2.30;;;21.50;99.90;;;;;;5075258;28;20219;-67
2021/05/09 08:30:59;;;;;;;3.40;2.43;;;22.50;99.90;;;;;;5067271;28;20203;-66
2021/05/09 08:33:27;;;;;;;2.33;2.23;;;23.40;99.90;;;;;;5066896;28;20188;-67
2021/05/09 08:35:54;;;;;;;2.80;2.60;;;23.90;99.90;;;;;;5067127;28;20202;-66
2021/05/09 08:38:24;;;;;;;2.47;2.20;;;24.20;99.90;;;;;;5065576;28;20185;-66
2021/05/09 08:40:51;;;;;;;2.23;2.03;;;24.40;99.90;;;;;;5065289;28;20177;-67
2021/05/09 08:43:19;;;;;;;3.03;2.73;;;24.00;99.90;;;;;;5067894;28;20199;-67
2021/05/09 08:45:47;;;;;;;2.67;2.17;;;23.90;99.90;;;;;;5063203;28;20201;-67
2021/05/09 08:48:19;;;;;;;2.40;2.20;;;24.00;99.90;;;;;;5064793;28;20218;-67
2021/05/09 08:50:49;;;;;;;4.83;2.17;;;24.70;99.90;;;;;;5065045;28;20203;-66
2021/05/09 08:53:17;;;;;;;2.30;2.03;;;25.10;99.90;;;;;;5066851;28;20199;-66
2021/05/09 08:55:45;;;;;;;4.43;2.13;;;25.70;99.90;;;;;;5069221;28;20211;-67
2021/05/09 08:58:15;;;;;;;2.50;2.07;;;25.80;99.90;;;;;;5063857;28;20176;-65
2021/05/09 09:00:43;;;;;;;2.40;2.20;;;25.50;99.90;;;;;;5062578;28;20559;-66
2021/05/09 09:03:13;;;;;;;4.07;2.57;;;25.20;99.90;;;;;;5067523;28;20195;-67
2021/05/09 09:05:43;;;;;;;4.40;2.10;;;25.00;99.90;;;;;;5066384;28;20226;-67
2021/05/09 09:08:14;;;;;;;2.37;2.27;;;25.30;99.90;;;;;;5070311;28;20230;-67
2021/05/09 09:10:45;;;;;;;2.43;2.33;;;25.30;99.90;;;;;;5066837;28;20668;-67
2021/05/09 09:13:23;;;;;;;3.27;2.47;;;24.80;99.90;;;;;;5062370;28;20557;-67
2021/05/09 09:15:57;;;;;;;4.40;2.50;;;24.70;99.90;;;;;;5076243;28;20192;-67
2021/05/09 09:18:29;;;;;;;2.43;2.33;;;24.40;99.90;;;;;;5077953;28;20219;-66
2021/05/09 09:20:58;;;;;;;4.50;2.77;;;24.20;99.90;;;;;;5073953;28;20199;-66
2021/05/09 09:23:44;;;;;;;6.10;2.27;;;23.60;99.90;;;;;;5077742;28;20190;-67
2021/05/09 09:26:30;;;;;;;4.70;2.60;;;23.00;99.90;;;;;;5060665;28;20184;-67
2021/05/09 09:28:58;;;;;;;4.97;2.60;;;22.50;99.90;;;;;;5071219;28;20218;-67
2021/05/09 09:31:40;;;;;;;2.40;2.30;;;22.20;99.90;;;;;;5067774;28;20196;-66
2021/05/09 09:34:08;;;;;;;2.70;2.50;;;22.40;99.90;;;;;;5066544;28;20184;-67
2021/05/09 09:36:36;;;;;;;3.07;2.20;;;22.70;99.90;;;;;;5070963;28;20183;-67
2021/05/09 09:39:06;;;;;;;3.03;2.40;;;23.90;99.90;;;;;;5067997;28;20201;-67
2021/05/09 09:41:44;;;;;;;2.57;2.30;;;24.90;99.90;;;;;;5064519;28;20226;-66
2021/05/09 09:44:15;;;;;;;2.63;2.43;;;25.00;99.90;;;;;;5067271;28;20190;-67
2021/05/09 09:46:49;;;;;;;2.93;2.47;;;25.10;99.90;;;;;;5068741;28;20771;-67
2021/05/09 09:49:31;;;;;;;2.60;2.40;;;25.20;99.90;;;;;;5070066;28;20214;-67
2021/05/09 09:52:00;;;;;;;2.57;2.27;;;24.80;99.90;;;;;;5066021;28;20276;-66
2021/05/09 09:54:36;;;;;;;2.40;2.20;;;24.20;99.90;;;;;;5066910;28;20202;-67
2021/05/09 09:57:07;;;;;;;2.53;2.33;;;24.40;99.90;;;;;;5070847;28;20240;-67
2021/05/09 09:59:35;;;;;;;2.43;2.30;;;24.00;99.90;;;;;;5070738;28;20195;-67
2021/05/09 10:02:04;;;;;;;2.67;2.50;;;23.80;99.90;;;;;;5059898;28;20472;-66
2021/05/09 10:04:32;;;;;;;3.20;2.50;;;23.40;99.90;;;;;;5064166;28;20194;-66
2021/05/09 10:07:06;;;;;;;4.77;2.50;;;23.70;99.90;;;;;;5069670;28;20287;-67
2021/05/09 10:09:35;;;;;;;4.90;2.40;;;24.40;99.90;;;;;;5070166;28;20266;-67
2021/05/09 10:12:02;;;;;;;2.60;2.40;;;24.40;99.90;;;;;;5069702;28;20193;-67
2021/05/09 10:14:35;;;;;;;2.80;2.30;;;24.10;99.90;;;;;;5069603;28;20283;-66
2021/05/09 10:17:03;;;;;;;3.37;2.40;;;23.90;99.90;;;;;;5070115;28;20184;-67
2021/05/09 10:19:31;;;;;;;4.10;2.80;;;23.60;99.90;;;;;;5071255;28;20699;-66
2021/05/09 10:22:19;;;;;;;6.13;2.80;;;22.90;99.90;;;;;;5075381;28;20776;-67
2021/05/09 10:24:48;;;;;;;5.23;2.43;;;22.30;99.90;;;;;;5091598;28;20203;-66
2021/05/09 10:27:15;;;;;;;4.90;2.77;;;22.10;99.90;;;;;;5074956;28;20203;-66
2021/05/09 10:29:52;;;;;;;2.60;2.40;;;22.00;99.90;;;;;;5069577;28;20212;-66
2021/05/09 10:32:51;;;;;;;3.90;2.77;;;22.40;99.90;;;;;;5070240;28;20683;-66
2021/05/09 10:35:52;;;;;;;2.77;2.50;;;23.00;99.90;;;;;;5065634;28;20217;-66
2021/05/09 10:38:20;;;;;;;4.83;2.40;;;23.70;99.90;;;;;;5060298;28;20544;-66
2021/05/09 10:40:48;;;;;;;9.23;2.80;;;23.60;99.90;;;;;;5069896;28;20284;-66
2021/05/09 10:43:40;;;;;;;3.23;2.93;;;23.00;99.90;;;;;;5069532;28;20219;-66
2021/05/09 10:46:10;;;;;;;2.80;2.63;;;22.30;99.90;;;;;;5068056;28;20275;-67
2021/05/09 10:48:37;;;;;;;4.20;2.90;;;21.80;99.90;;;;;;5069492;28;20201;-66
2021/05/09 10:51:29;;;;;;;4.30;3.13;;;21.50;99.90;;;;;;5070398;28;20294;-63
2021/05/09 10:54:19;;;;;;;5.50;3.53;;;21.00;99.90;;;;;;5068801;28;20184;-63
2021/05/09 10:56:47;;;;;;;3.77;3.47;;;20.10;99.90;;;;;;5069460;28;20257;-62
2021/05/09 10:59:15;;;;;;;7.20;3.97;;;19.40;99.90;;;;;;5068927;28;20686;-63
2021/05/09 11:01:43;;;;;;;7.17;3.97;;;19.20;99.90;;;;;;5068907;28;20816;-63
2021/05/09 11:04:11;;;;;;;4.53;3.53;;;19.40;99.90;;;;;;5068974;28;20196;-63
2021/05/09 11:06:49;;;;;;;3.60;3.40;;;20.00;99.90;;;;;;5068091;28;20195;-64
2021/05/09 11:09:29;;;;;;;5.03;3.50;;;20.70;99.90;;;;;;5067495;28;20216;-64
2021/05/09 11:12:03;;;;;;;4.00;3.70;;;21.30;99.90;;;;;;5068685;28;20199;-64
2021/05/09 11:14:35;;;;;;;4.00;3.17;;;21.90;99.90;;;;;;5067811;28;20215;-64
2021/05/09 11:17:10;;;;;;;8.63;3.20;;;22.10;99.90;;;;;;5073004;28;20213;-64
2021/05/09 11:19:44;;;;;;;3.13;2.83;;;21.80;99.90;;;;;;5084226;28;20237;-64
2021/05/09 11:22:12;;;;;;;3.50;3.30;;;22.10;99.90;;;;;;5070254;28;20192;-65
2021/05/09 11:24:41;;;;;;;3.40;3.20;;;22.10;99.90;;;;;;5069941;28;20192;-65
2021/05/09 11:27:12;;;;;;;8.60;3.50;;;22.00;99.90;;;;;;5070208;28;20203;-65
2021/05/09 11:29:42;;;;;;;3.90;3.60;;;22.10;99.90;;;;;;5064930;28;20220;-65
2021/05/09 11:32:11;;;;;;;3.50;3.30;;;22.40;99.90;;;;;;5068857;28;20183;-65
2021/05/09 11:34:49;;;;;;;5.70;3.30;;;22.50;99.90;;;;;;5067962;28;20204;-64
2021/05/09 11:37:18;;;;;;;4.87;3.37;;;22.50;99.90;;;;;;5065000;28;20196;-65
2021/05/09 11:39:46;;;;;;;3.30;2.93;;;22.60;99.90;;;;;;5062841;28;20408;-65
2021/05/09 11:42:16;;;;;;;4.37;3.03;;;22.90;99.90;;;;;;5061980;28;20202;-65
2021/05/09 11:44:45;;;;;;;3.87;3.20;;;23.10;99.90;;;;;;5060677;28;20694;-65
2021/05/09 11:47:14;;;;;;;4.83;3.50;;;23.20;99.90;;;;;;5061893;28;20189;-65
2021/05/09 11:49:43;;;;;;;4.80;3.13;;;23.20;99.90;;;;;;5061488;28;20204;-65
2021/05/09 11:52:17;;;;;;;5.20;2.90;;;23.50;99.90;;;;;;5067332;28;20295;-66
2021/05/09 11:54:46;;;;;;;3.07;2.87;;;23.70;99.90;;;;;;5073166;28;20196;-65
2021/05/09 11:57:18;;;;;;;6.20;3.03;;;23.70;99.90;;;;;;5066728;28;20272;-65
2021/05/09 11:59:46;;;;;;;3.63;2.70;;;23.60;99.90;;;;;;5066722;28;20193;-65
2021/05/09 12:02:29;;;;;;;4.67;3.10;;;23.30;99.90;;;;;;5058980;28;20207;-65
2021/05/09 12:04:59;;;;;;;3.47;3.20;;;23.60;99.90;;;;;;5061378;28;20192;-65
2021/05/09 12:07:28;;;;;;;3.10;2.80;;;23.90;99.90;;;;;;5061080;28;20189;-65
2021/05/09 12:10:06;;;;;;;3.30;3.00;;;24.20;99.90;;;;;;5065937;28;20897;-65
2021/05/09 12:12:37;;;;;;;3.00;2.90;;;24.40;99.90;;;;;;5064781;28;20193;-65
2021/05/09 12:15:08;;;;;;;3.10;2.90;;;24.40;99.90;;;;;;5063323;28;20333;-65
2021/05/09 12:17:49;;;;;;;3.50;3.13;;;24.00;99.90;;;;;;5064391;28;20262;-65
2021/05/09 12:20:33;;;;;;;5.27;2.90;;;23.80;99.90;;;;;;5059438;28;20188;-66
2021/05/09 12:23:04;;;;;;;4.07;2.80;;;24.00;99.90;;;;;;5065620;28;20735;-65
2021/05/09 12:25:38;;;;;;;5.50;2.90;;;24.20;99.90;;;;;;5064370;28;20192;-62
2021/05/09 12:28:08;;;;;;;7.63;2.90;;;24.20;99.90;;;;;;5062947;28;20195;-65
2021/05/09 12:30:36;;;;;;;6.97;2.77;;;24.20;99.90;;;;;;5062333;28;20207;-65
2021/05/09 12:33:04;;;;;;;3.00;2.67;;;24.30;99.90;;;;;;5066822;28;20188;-65
2021/05/09 12:35:42;;;;;;;3.00;2.80;;;24.30;99.90;;;;;;5062423;28;20667;-66
2021/05/09 12:38:09;;;;;;;2.93;2.63;;;24.30;99.90;;;;;;5062862;28;20561;-65
2021/05/09 12:40:38;;;;;;;4.10;2.80;;;24.30;99.90;;;;;;5063855;28;20682;-65
2021/05/09 12:43:08;;;;;;;3.00;2.80;;;24.20;99.90;;;;;;5062370;28;20203;-64
2021/05/09 12:45:41;;;;;;;2.90;2.70;;;24.30;99.90;;;;;;5060183;28;20235;-65
2021/05/09 12:48:20;;;;;;;4.70;2.90;;;24.30;99.90;;;;;;5064542;28;20204;-65
2021/05/09 12:50:59;;;;;;;6.20;3.03;;;24.30;99.90;;;;;;5064569;28;20271;-64
2021/05/09 12:53:41;;;;;;;3.07;2.87;;;24.40;99.90;;;;;;5063930;28;20188;-65
2021/05/09 12:56:30;;;;;;;3.23;2.60;;;24.50;99.90;;;;;;5065514;28;20195;-59
2021/05/09 12:59:06;;;;;;;2.97;2.77;;;24.60;99.90;;;;;;5063883;28;20190;-65